createdAt,value
2022-11-16T00:01:45.370Z,93052.72
2022-11-16T00:04:12.507Z,93049.00
2022-11-16T00:06:39.830Z,93047.44
2022-11-16T00:09:28.857Z,93047.88
2022-11-16T00:12:02.596Z,93034.97
2022-11-16T00:14:32.746Z,93036.97
2022-11-16T00:17:01.098Z,93038.19
2022-11-16T00:19:28.792Z,93027.84
2022-11-16T00:21:56.445Z,93034.97
2022-11-16T00:24:24.255Z,93026.97
2022-11-16T00:26:54.020Z,93023.94
2022-11-16T00:29:23.507Z,93028.84
2022-11-16T00:31:51.616Z,93026.53
2022-11-16T00:34:18.795Z,93021.47
2022-11-16T00:36:46.337Z,93027.66
2022-11-16T00:39:15.023Z,93028.84
2022-11-16T00:41:42.386Z,93033.50
2022-11-16T00:44:09.860Z,93022.06
2022-11-16T00:46:36.632Z,93019.47
2022-11-16T00:49:03.941Z,93030.94
2022-11-16T00:51:30.671Z,93030.16
2022-11-16T00:53:57.863Z,93030.75
2022-11-16T00:56:24.750Z,93029.97
2022-11-16T00:58:51.541Z,93033.84
2022-11-16T01:01:18.445Z,93025.50
2022-11-16T01:03:46.257Z,93030.75
2022-11-16T01:06:14.577Z,93030.75
2022-11-16T01:08:42.907Z,93029.63
2022-11-16T01:11:28.975Z,93025.06
2022-11-16T01:13:58.465Z,93020.84
2022-11-16T01:16:25.192Z,93016.63
2022-11-16T01:18:54.232Z,93023.19
2022-11-16T01:21:22.688Z,93023.59
2022-11-16T01:23:50.080Z,93029.72
2022-11-16T01:26:17.489Z,93029.63
2022-11-16T01:28:44.487Z,93039.88
2022-11-16T01:31:12.967Z,93044.34
2022-11-16T01:33:40.959Z,93060.19
2022-11-16T01:36:17.344Z,93051.84
2022-11-16T01:38:45.888Z,93058.41
2022-11-16T01:41:20.614Z,93046.16
2022-11-16T01:44:07.413Z,93048.31
2022-11-16T01:46:48.998Z,93046.75
2022-11-16T01:49:21.666Z,93044.84
2022-11-16T01:52:01.815Z,93041.06
2022-11-16T01:54:36.645Z,93037.72
2022-11-16T01:57:07.057Z,93039.72
2022-11-16T01:59:41.307Z,93028.59
2022-11-16T02:02:15.849Z,93027.03
2022-11-16T02:04:43.873Z,93024.81
2022-11-16T02:08:02.791Z,93022.25
2022-11-16T02:10:42.890Z,93022.25
2022-11-16T02:13:27.841Z,93015.41
2022-11-16T02:16:27.910Z,93014.28
2022-11-16T02:19:23.249Z,93007.06
2022-11-16T02:22:05.260Z,93006.28
2022-11-16T02:24:44.070Z,92999.06
2022-11-16T02:27:33.248Z,92998.72
2022-11-16T02:30:00.292Z,92998.72
2022-11-16T02:32:36.868Z,92994.50
2022-11-16T02:35:13.902Z,92991.81
2022-11-16T02:37:47.568Z,92993.38
2022-11-16T02:40:19.423Z,92992.59
2022-11-16T02:42:54.602Z,92991.81
2022-11-16T02:45:25.671Z,92990.69
2022-11-16T02:47:56.122Z,92990.69
2022-11-16T02:50:25.363Z,92994.50
2022-11-16T02:52:53.676Z,92984.69
2022-11-16T02:55:20.602Z,92982.78
2022-11-16T02:57:55.265Z,92981.31
2022-11-16T03:00:26.496Z,92980.22
2022-11-16T03:03:06.347Z,92986.75
2022-11-16T03:05:46.572Z,92975.28
2022-11-16T03:08:22.781Z,92984.53
2022-11-16T03:11:14.435Z,92978.06
2022-11-16T03:13:42.013Z,92979.94
2022-11-16T03:16:19.432Z,92977.63
2022-11-16T03:18:48.568Z,92978.41
2022-11-16T03:21:17.471Z,92981.06
2022-11-16T03:23:45.939Z,92989.00
2022-11-16T03:26:17.787Z,92988.66
2022-11-16T03:28:58.851Z,92984.09
2022-11-16T03:31:35.011Z,92988.75
2022-11-16T03:34:10.525Z,92995.28
2022-11-16T03:36:42.812Z,92998.31
2022-11-16T03:39:15.744Z,93010.19
2022-11-16T03:41:47.475Z,93010.44
2022-11-16T03:44:16.059Z,93008.47
2022-11-16T03:46:44.326Z,93009.38
2022-11-16T03:49:13.197Z,93011.03
2022-11-16T03:51:40.910Z,93016.19
2022-11-16T03:54:07.773Z,93016.53
2022-11-16T03:56:35.617Z,93022.63
2022-11-16T03:59:03.045Z,93015.06
2022-11-16T04:01:30.770Z,93021.50
2022-11-16T04:03:57.479Z,93022.19
2022-11-16T04:06:43.029Z,93025.09
2022-11-16T04:09:29.193Z,93015.63
2022-11-16T04:12:14.802Z,93015.19
2022-11-16T04:15:01.419Z,93012.84
2022-11-16T04:17:48.572Z,93018.34
2022-11-16T04:20:34.703Z,93012.47
2022-11-16T04:23:27.399Z,93006.28
2022-11-16T04:25:54.484Z,93013.16
2022-11-16T04:28:27.159Z,93010.81
2022-11-16T04:31:17.755Z,93006.94
2022-11-16T04:34:09.889Z,93013.06
2022-11-16T04:36:58.494Z,93002.81
2022-11-16T04:39:26.112Z,92991.38
2022-11-16T04:42:11.669Z,92984.81
2022-11-16T04:44:57.689Z,92977.78
2022-11-16T04:47:28.590Z,92982.31
2022-11-16T04:49:55.417Z,92983.00
2022-11-16T04:52:23.020Z,92980.56
2022-11-16T04:54:50.798Z,92979.59
2022-11-16T04:57:17.880Z,92983.47
2022-11-16T04:59:46.060Z,92984.84
2022-11-16T05:02:13.168Z,92991.81
2022-11-16T05:04:53.400Z,92997.13
2022-11-16T05:07:21.804Z,92996.13
2022-11-16T05:09:50.433Z,92991.13
2022-11-16T05:12:25.039Z,92986.00
2022-11-16T05:14:56.742Z,92990.31
2022-11-16T05:17:27.481Z,92992.22
2022-11-16T05:20:14.670Z,92990.00
2022-11-16T05:22:55.223Z,92994.22
2022-11-16T05:25:24.209Z,92989.66
2022-11-16T05:27:51.438Z,92980.94
2022-11-16T05:30:18.414Z,92972.28
2022-11-16T05:32:46.189Z,92974.50
2022-11-16T05:35:15.003Z,92977.16
2022-11-16T05:37:42.769Z,92981.06
2022-11-16T05:40:10.383Z,92976.16
2022-11-16T05:42:43.689Z,92975.91
2022-11-16T05:45:10.675Z,92977.22
2022-11-16T05:47:37.490Z,92983.00
2022-11-16T05:50:04.479Z,92990.22
2022-11-16T05:52:36.887Z,92984.63
2022-11-16T05:55:08.204Z,92983.84
2022-11-16T05:57:40.929Z,92981.63
2022-11-16T06:00:08.575Z,92986.28
2022-11-16T06:02:41.577Z,92987.81
2022-11-16T06:05:14.263Z,92974.47
2022-11-16T06:07:40.912Z,92981.13
2022-11-16T06:10:07.821Z,92986.63
2022-11-16T06:12:34.591Z,92984.28
2022-11-16T06:15:01.273Z,92989.28
2022-11-16T06:17:28.066Z,92994.63
2022-11-16T06:19:54.826Z,92987.41
2022-11-16T06:22:21.554Z,92996.63
2022-11-16T06:24:48.477Z,93000.94
2022-11-16T06:27:15.998Z,93002.25
2022-11-16T06:29:44.484Z,93001.56
2022-11-16T06:32:11.189Z,93009.22
2022-11-16T06:34:38.743Z,93018.41
2022-11-16T06:37:05.594Z,93013.19
2022-11-16T06:39:32.515Z,93019.19
2022-11-16T06:41:59.933Z,93009.38
2022-11-16T06:44:27.289Z,93013.38
2022-11-16T06:46:58.798Z,93013.13
2022-11-16T06:49:25.545Z,93008.28
2022-11-16T06:51:55.300Z,93008.88
2022-11-16T06:54:21.974Z,93007.50
2022-11-16T06:56:49.298Z,93002.59
2022-11-16T06:59:16.624Z,93008.72
2022-11-16T07:01:44.666Z,93016.44
2022-11-16T07:04:13.963Z,93015.00
2022-11-16T07:06:45.323Z,93008.97
2022-11-16T07:09:15.383Z,93013.97
2022-11-16T07:11:43.381Z,93007.84
2022-11-16T07:14:11.840Z,93019.72
2022-11-16T07:16:38.853Z,93022.06
2022-11-16T07:19:06.170Z,93025.59
2022-11-16T07:21:34.732Z,93019.22
2022-11-16T07:24:05.421Z,93033.41
2022-11-16T07:26:35.574Z,93033.63
2022-11-16T07:29:08.347Z,93030.16
2022-11-16T07:31:38.794Z,93042.59
2022-11-16T07:34:34.877Z,93047.25
2022-11-16T07:37:06.008Z,93047.28
2022-11-16T07:39:33.172Z,93053.41
2022-11-16T07:41:59.893Z,93055.75
2022-11-16T07:44:42.116Z,93054.19
2022-11-16T07:47:10.182Z,93065.75
2022-11-16T07:49:37.372Z,93060.41
2022-11-16T07:52:13.986Z,93051.94
2022-11-16T07:54:56.845Z,93053.06
2022-11-16T07:57:25.968Z,93074.47
2022-11-16T07:59:54.548Z,93064.81
2022-11-16T08:02:21.222Z,93067.13
2022-11-16T08:04:50.681Z,93064.88
2022-11-16T08:07:21.118Z,93065.31
2022-11-16T08:09:52.930Z,93061.09
2022-11-16T08:12:20.829Z,93071.53
2022-11-16T08:14:48.081Z,93070.41
2022-11-16T08:17:15.130Z,93072.72
2022-11-16T08:19:43.397Z,93072.72
2022-11-16T08:22:13.371Z,93072.81
2022-11-16T08:24:41.511Z,93083.78
2022-11-16T08:27:08.852Z,93079.53
2022-11-16T08:29:35.610Z,93084.81
2022-11-16T08:32:04.711Z,93082.06
2022-11-16T08:34:34.556Z,93093.47
2022-11-16T08:37:01.320Z,93088.81
2022-11-16T08:39:41.795Z,93086.56
2022-11-16T08:42:09.611Z,93089.63
2022-11-16T08:44:37.378Z,93090.16
2022-11-16T08:47:08.893Z,93094.91
2022-11-16T08:49:48.290Z,93093.53
2022-11-16T08:52:16.893Z,93098.53
2022-11-16T08:54:44.078Z,93095.47
2022-11-16T08:57:11.162Z,93103.09
2022-11-16T08:59:39.593Z,93104.66
2022-11-16T09:02:10.762Z,93105.81
2022-11-16T09:04:37.575Z,93111.19
2022-11-16T09:07:04.517Z,93115.41
2022-11-16T09:09:31.196Z,93129.13
2022-11-16T09:11:57.862Z,93117.94
2022-11-16T09:14:24.568Z,93120.59
2022-11-16T09:16:51.324Z,93117.66
2022-11-16T09:19:18.090Z,93113.06
2022-11-16T09:21:45.691Z,93118.50
2022-11-16T09:24:12.897Z,93122.03
2022-11-16T09:26:39.593Z,93121.00
2022-11-16T09:29:06.232Z,93111.50
2022-11-16T09:31:34.888Z,93113.41
2022-11-16T09:34:02.877Z,93113.22
2022-11-16T09:36:30.098Z,93115.47
2022-11-16T09:42:03.685Z,93113.97
2022-11-16T09:44:30.298Z,93113.97
2022-11-16T09:46:59.590Z,93112.19
2022-11-16T09:49:35.411Z,93112.31
2022-11-16T09:52:11.224Z,93117.78
2022-11-16T09:54:42.574Z,93112.69
2022-11-16T09:57:14.530Z,93120.16
2022-11-16T09:59:49.639Z,93113.34
2022-11-16T10:02:25.335Z,93116.78
2022-11-16T10:05:01.122Z,93118.66
2022-11-16T10:07:43.171Z,93121.13
2022-11-16T10:10:18.676Z,93116.41
2022-11-16T10:13:12.589Z,93117.44
2022-11-16T10:16:00.368Z,93127.78
2022-11-16T10:18:44.467Z,93121.28
2022-11-16T10:21:21.815Z,93120.03
2022-11-16T10:24:10.385Z,93114.81
2022-11-16T10:26:53.840Z,93113.25
2022-11-16T10:29:54.540Z,93105.31
2022-11-16T10:32:32.864Z,93100.59
2022-11-16T10:35:20.006Z,93095.25
2022-11-16T10:37:51.347Z,93100.41
2022-11-16T10:40:26.244Z,93104.44
2022-11-16T10:43:01.040Z,93098.56
2022-11-16T10:45:49.631Z,93101.44
2022-11-16T10:48:28.756Z,93092.44
2022-11-16T10:50:55.942Z,93089.97
2022-11-16T10:53:33.544Z,93094.25
2022-11-16T10:56:25.290Z,93095.66
2022-11-16T10:58:57.475Z,93086.06
2022-11-16T11:01:28.376Z,93087.72
2022-11-16T11:03:55.041Z,93083.09
2022-11-16T11:06:26.243Z,93089.00
2022-11-16T11:08:52.925Z,93084.19
2022-11-16T11:11:40.621Z,93087.63
2022-11-16T11:14:14.570Z,93083.31
2022-11-16T11:16:41.654Z,93082.69
2022-11-16T11:19:25.242Z,93089.72
2022-11-16T11:21:59.270Z,93095.09
2022-11-16T11:27:20.834Z,93092.75
2022-11-16T11:29:52.408Z,93085.38
2022-11-16T11:32:24.161Z,93083.88
2022-11-16T11:34:53.103Z,93080.16
2022-11-16T11:37:25.338Z,93082.41
2022-11-16T11:40:28.089Z,93079.22
2022-11-16T11:42:59.392Z,93080.69
2022-11-16T11:45:32.060Z,93076.41
2022-11-16T11:48:21.290Z,93074.81
2022-11-16T11:50:55.701Z,93066.63
2022-11-16T11:53:37.766Z,93067.97
2022-11-16T11:56:04.938Z,93067.16
2022-11-16T11:58:35.583Z,93057.44
2022-11-16T12:01:25.245Z,93072.03
2022-11-16T12:04:24.835Z,93065.50
2022-11-16T12:07:21.919Z,93060.41
2022-11-16T12:09:48.578Z,93064.84
2022-11-16T12:12:33.109Z,93065.66
2022-11-16T12:15:10.490Z,93064.81
2022-11-16T12:17:47.352Z,93065.06
2022-11-16T12:20:20.178Z,93065.69
2022-11-16T12:23:07.305Z,93068.66
2022-11-16T12:26:07.197Z,93058.69
2022-11-16T12:28:52.555Z,93061.38
2022-11-16T12:32:10.368Z,93054.88
2022-11-16T12:34:55.814Z,93054.00
2022-11-16T12:37:44.074Z,93049.94
2022-11-16T12:40:31.056Z,93055.03
2022-11-16T12:43:15.692Z,93052.22
2022-11-16T12:45:50.858Z,93043.19
2022-11-16T12:49:02.152Z,93043.88
2022-11-16T12:51:32.165Z,93047.28
2022-11-16T12:54:23.840Z,93049.59
2022-11-16T12:57:00.522Z,93045.00
2022-11-16T12:59:52.650Z,93045.72
2022-11-16T13:02:46.217Z,93039.91
2022-11-16T13:05:23.363Z,93036.44
2022-11-16T13:08:02.894Z,93036.84
2022-11-16T13:10:35.505Z,93039.09
2022-11-16T13:16:04.286Z,93041.53
2022-11-16T13:18:35.680Z,93040.22
2022-11-16T13:21:13.490Z,93033.28
2022-11-16T13:23:59.628Z,93035.06
2022-11-16T13:26:50.673Z,93030.00
2022-11-16T13:29:37.169Z,93027.94
2022-11-16T13:32:18.885Z,93029.09
2022-11-16T13:34:46.582Z,93034.59
2022-11-16T13:37:38.288Z,93036.25
2022-11-16T13:40:05.088Z,93027.56
2022-11-16T13:42:34.389Z,93021.31
2022-11-16T13:45:21.990Z,93011.97
2022-11-16T13:47:54.138Z,93015.91
2022-11-16T13:50:22.663Z,93021.53
2022-11-16T13:55:44.075Z,93015.47
2022-11-16T13:58:20.434Z,93012.22
2022-11-16T14:00:58.368Z,93020.53
2022-11-16T14:03:40.046Z,93013.50
2022-11-16T14:06:29.431Z,93012.50
2022-11-16T14:08:57.497Z,93008.53
2022-11-16T14:11:35.002Z,93001.94
2022-11-16T14:14:09.644Z,93007.28
2022-11-16T14:16:50.748Z,93004.56
2022-11-16T14:19:49.231Z,92994.50
2022-11-16T14:22:44.542Z,92991.31
2022-11-16T14:25:37.490Z,92981.59
2022-11-16T14:28:32.449Z,92986.88
2022-11-16T14:31:08.290Z,92988.69
2022-11-16T14:33:37.249Z,92980.19
2022-11-16T14:36:07.678Z,92978.22
2022-11-16T14:38:38.471Z,92977.81
2022-11-16T14:41:07.464Z,92975.44
2022-11-16T14:43:45.543Z,92970.72
2022-11-16T14:46:26.554Z,92973.34
2022-11-16T14:48:56.874Z,92975.25
2022-11-16T14:51:32.869Z,92980.50
2022-11-16T14:54:05.270Z,92981.44
2022-11-16T14:56:32.101Z,92983.19
2022-11-16T14:59:01.051Z,92985.91
2022-11-16T15:01:33.820Z,92980.09
2022-11-16T15:04:06.984Z,92985.03
2022-11-16T15:06:48.728Z,92972.03
2022-11-16T15:09:37.962Z,92968.53
2022-11-16T15:12:30.160Z,92965.13
2022-11-16T15:15:00.630Z,92963.59
2022-11-16T15:17:31.842Z,92963.94
2022-11-16T15:20:02.765Z,92962.03
2022-11-16T15:22:32.126Z,92960.84
2022-11-16T15:25:01.184Z,92960.72
2022-11-16T15:27:33.948Z,92966.81
2022-11-16T15:30:17.061Z,92969.81
2022-11-16T15:32:46.043Z,92963.19
2022-11-16T15:35:32.583Z,92965.34
2022-11-16T15:38:21.068Z,92967.56
2022-11-16T15:40:52.731Z,92957.84
2022-11-16T15:43:23.579Z,92957.72
2022-11-16T15:45:50.892Z,92960.41
2022-11-16T15:48:23.283Z,92955.03
2022-11-16T15:51:23.675Z,92952.28
2022-11-16T15:53:55.073Z,92948.75
2022-11-16T15:56:33.144Z,92947.06
2022-11-16T15:59:12.478Z,92947.34
2022-11-16T16:01:43.535Z,92956.47
2022-11-16T16:04:15.777Z,92965.97
2022-11-16T16:06:56.119Z,92964.28
2022-11-16T16:09:41.357Z,92968.25
2022-11-16T16:12:17.808Z,92969.66
2022-11-16T16:14:45.396Z,92950.56
2022-11-16T16:17:28.467Z,92943.31
2022-11-16T16:20:00.844Z,92951.69
2022-11-16T16:22:33.683Z,92952.13
2022-11-16T16:25:04.192Z,92959.72
2022-11-16T16:27:40.696Z,92962.75
2022-11-16T16:30:08.689Z,92965.50
2022-11-16T16:32:37.453Z,92962.84
2022-11-16T16:35:07.313Z,92962.47
2022-11-16T16:37:36.067Z,92955.22
2022-11-16T16:40:03.208Z,92962.50
2022-11-16T16:42:29.853Z,92955.28
2022-11-16T16:44:59.434Z,92957.09
2022-11-16T16:47:26.098Z,92951.28
2022-11-16T16:49:52.793Z,92939.31
2022-11-16T16:52:19.459Z,92942.13
2022-11-16T16:54:46.296Z,92946.63
2022-11-16T16:57:17.643Z,92942.75
2022-11-16T16:59:45.738Z,92932.50
2022-11-16T17:02:13.019Z,92927.19
2022-11-16T17:04:39.989Z,92934.88
2022-11-16T17:07:06.817Z,92932.19
2022-11-16T17:09:33.617Z,92932.50
2022-11-16T17:12:00.297Z,92937.34
2022-11-16T17:14:27.030Z,92944.06
2022-11-16T17:16:53.673Z,92940.25
2022-11-16T17:19:22.892Z,92925.28
2022-11-16T17:21:51.820Z,92928.81
2022-11-16T17:24:18.526Z,92928.47
2022-11-16T17:26:48.340Z,92927.25
2022-11-16T17:29:15.309Z,92918.47
2022-11-16T17:31:44.124Z,92914.25
2022-11-16T17:34:13.716Z,92902.69
2022-11-16T17:36:41.543Z,92902.63
2022-11-16T17:39:08.225Z,92915.06
2022-11-16T17:41:34.930Z,92918.97
2022-11-16T17:44:01.669Z,92914.94
2022-11-16T17:46:29.149Z,92913.28
2022-11-16T17:48:56.005Z,92908.97
2022-11-16T17:51:24.627Z,92910.94
2022-11-16T17:53:52.056Z,92909.66
2022-11-16T17:56:21.215Z,92917.28
2022-11-16T17:58:50.102Z,92907.59
2022-11-16T18:01:17.196Z,92912.00
2022-11-16T18:03:44.326Z,92906.66
2022-11-16T18:06:14.374Z,92915.78
2022-11-16T18:08:42.082Z,92913.69
2022-11-16T18:11:13.113Z,92905.63
2022-11-16T18:13:39.826Z,92912.09
2022-11-16T18:16:07.569Z,92910.38
2022-11-16T18:18:34.505Z,92899.78
2022-11-16T18:21:01.910Z,92901.38
2022-11-16T18:23:29.216Z,92892.25
2022-11-16T18:25:56.297Z,92901.22
2022-11-16T18:28:23.196Z,92892.88
2022-11-16T18:30:50.261Z,92885.53
2022-11-16T18:33:17.071Z,92897.00
2022-11-16T18:35:44.431Z,92893.22
2022-11-16T18:38:13.129Z,92897.34
2022-11-16T18:40:40.560Z,92891.16
2022-11-16T18:43:12.978Z,92878.91
2022-11-16T18:45:39.631Z,92876.59
2022-11-16T18:48:07.097Z,92880.47
2022-11-16T18:50:33.765Z,92873.56
2022-11-16T18:53:00.400Z,92860.66
2022-11-16T18:55:27.074Z,92859.97
2022-11-16T18:57:53.681Z,92848.78
2022-11-16T19:00:20.567Z,92852.56
2022-11-16T19:02:47.187Z,92837.59
2022-11-16T19:05:13.854Z,92838.22
2022-11-16T19:07:40.548Z,92836.31
2022-11-16T19:10:07.977Z,92824.44
2022-11-16T19:12:34.602Z,92818.44
2022-11-16T19:15:01.233Z,92808.72
2022-11-16T19:17:27.924Z,92802.59
2022-11-16T19:19:54.624Z,92801.81
2022-11-16T19:22:21.274Z,92792.97
2022-11-16T19:24:47.876Z,92796.94
2022-11-16T19:27:14.617Z,92793.59
2022-11-16T19:29:41.285Z,92795.63
2022-11-16T19:32:08.019Z,92794.00
2022-11-16T19:34:34.620Z,92792.97
2022-11-16T19:37:01.274Z,92804.00
2022-11-16T19:39:27.897Z,92800.97
2022-11-16T19:41:54.536Z,92799.06
2022-11-16T19:44:21.173Z,92803.38
2022-11-16T19:46:47.901Z,92803.22
2022-11-16T19:49:20.294Z,92805.31
2022-11-16T19:51:47.879Z,92807.63
2022-11-16T19:54:14.927Z,92818.53
2022-11-16T19:56:42.454Z,92812.25
2022-11-16T19:59:09.513Z,92807.34
2022-11-16T20:01:36.197Z,92807.41
2022-11-16T20:04:03.782Z,92803.75
2022-11-16T20:06:32.597Z,92813.53
2022-11-16T20:09:02.833Z,92808.44
2022-11-16T20:11:33.691Z,92819.97
2022-11-16T20:14:01.632Z,92820.97
2022-11-16T20:16:38.355Z,92824.97
2022-11-16T20:19:09.658Z,92833.16
2022-11-16T20:21:41.603Z,92825.75
2022-11-16T20:24:11.922Z,92823.09
2022-11-16T20:26:45.668Z,92828.94
2022-11-16T20:29:13.461Z,92823.28
2022-11-16T20:31:42.719Z,92827.50
2022-11-16T20:34:14.203Z,92831.81
2022-11-16T20:36:46.242Z,92830.06
2022-11-16T20:39:18.313Z,92822.41
2022-11-16T20:41:45.393Z,92817.63
2022-11-16T20:44:22.261Z,92821.41
2022-11-16T20:46:50.649Z,92811.69
2022-11-16T20:49:17.330Z,92798.72
2022-11-16T20:51:46.836Z,92779.31
2022-11-16T20:54:13.557Z,92762.47
2022-11-16T20:56:40.272Z,92768.34
2022-11-16T20:59:06.931Z,92760.59
2022-11-16T21:01:33.701Z,92765.16
2022-11-16T21:04:05.615Z,92758.97
2022-11-16T21:06:33.305Z,92748.97
2022-11-16T21:09:00.247Z,92750.44
2022-11-16T21:11:29.923Z,92761.63
2022-11-16T21:14:15.158Z,92765.19
2022-11-16T21:16:42.152Z,92751.22
2022-11-16T21:19:09.278Z,92758.53
2022-11-16T21:21:36.433Z,92770.13
2022-11-16T21:24:03.140Z,92764.38
2022-11-16T21:26:32.023Z,92765.16
2022-11-16T21:29:00.103Z,92759.94
2022-11-16T21:31:29.816Z,92759.94
2022-11-16T21:33:57.282Z,92759.63
2022-11-16T21:36:26.231Z,92758.97
2022-11-16T21:38:53.954Z,92754.31
2022-11-16T21:41:22.947Z,92750.75
2022-11-16T21:43:49.734Z,92747.91
2022-11-16T21:46:18.964Z,92748.75
2022-11-16T21:48:51.041Z,92742.00
2022-11-16T21:51:20.200Z,92749.22
2022-11-16T21:53:47.841Z,92748.44
2022-11-16T21:56:20.335Z,92742.88
2022-11-16T21:58:46.910Z,92740.41
2022-11-16T22:01:16.154Z,92743.19
2022-11-16T22:03:45.006Z,92733.75
2022-11-16T22:06:35.149Z,92727.47
2022-11-16T22:09:02.260Z,92723.69
2022-11-16T22:11:28.996Z,92732.22
2022-11-16T22:13:55.874Z,92732.38
2022-11-16T22:16:23.480Z,92729.94
2022-11-16T22:18:50.857Z,92740.03
2022-11-16T22:21:18.017Z,92726.41
2022-11-16T22:23:44.800Z,92729.59
2022-11-16T22:26:14.953Z,92719.63
2022-11-16T22:28:42.012Z,92717.53
2022-11-16T22:31:12.571Z,92717.31
2022-11-16T22:33:40.435Z,92720.38
2022-11-16T22:36:09.331Z,92710.50
2022-11-16T22:38:37.007Z,92708.53
2022-11-16T22:41:04.737Z,92696.91
2022-11-16T22:43:32.623Z,92698.91
2022-11-16T22:46:01.513Z,92698.72
2022-11-16T22:48:35.035Z,92704.16
2022-11-16T22:51:22.481Z,92705.91
2022-11-16T22:54:01.179Z,92707.69
2022-11-16T22:56:30.765Z,92707.94
2022-11-16T22:58:58.242Z,92722.44
2022-11-16T23:01:24.918Z,92720.19
2022-11-16T23:03:52.507Z,92716.88
2022-11-16T23:06:19.850Z,92722.44
2022-11-16T23:08:46.763Z,92713.56
2022-11-16T23:11:34.805Z,92709.22
2022-11-16T23:14:21.390Z,92715.19
2022-11-16T23:16:48.519Z,92713.78
2022-11-16T23:19:35.947Z,92716.56
2022-11-16T23:22:23.168Z,92709.69
2022-11-16T23:25:08.501Z,92703.94
2022-11-16T23:27:57.012Z,92698.94
2022-11-16T23:30:24.424Z,92702.25
2022-11-16T23:32:51.657Z,92702.25
2022-11-16T23:35:18.526Z,92686.53
2022-11-16T23:37:52.997Z,92691.06
2022-11-16T23:40:20.620Z,92692.22
2022-11-16T23:43:05.861Z,92686.13
2022-11-16T23:45:32.724Z,92688.28
2022-11-16T23:47:59.856Z,92675.66
2022-11-16T23:50:26.516Z,92665.69
2022-11-16T23:52:53.233Z,92668.38
2022-11-16T23:55:20.050Z,92671.59
2022-11-16T23:57:46.875Z,92661.28
